Aviation Digital Data Service (ADDS)

Output produced by METARs form (1741 UTC 24 June 2019)
found at http://www.aviationweather.gov/metar/data/
 
Forecast for: TNCM (ST MAARTEN JULIA, VI)
Text: TNCM 241728Z 2418/2518 09011KT P6SM SCT018
Forecast period: 1800 to 2300 UTC 24 June 2019
Forecast type: FROM: standard forecast or significant change
Winds: from the E (90 degrees) at 13 MPH (11 knots; 5.7 m/s)
Visibility: 6 or more miles 10+ km)
Ceiling: at least 12,000 feet AGL
Clouds: scattered clouds at 1800 feet AGL
Weather: no significant weather forecast for this period
Text: FM242300 10008KT P6SM VCSH SCT018 SCT030
Forecast period: 2300 UTC 24 June 2019 to 1800 UTC 25 June 2019
Forecast type: FROM: standard forecast or significant change
Winds: from the E (100 degrees) at 9 MPH (8 knots; 4.1 m/s)
Visibility: 6 or more miles 10+ km)
Ceiling: at least 12,000 feet AGL
Clouds: scattered clouds at 1800 feet AGL
scattered clouds at 3000 feet AGL
Weather: VCSH  (showers in vicinity)